createdAt,value
2023-04-10T00:01:57.471Z,67.37
2023-04-10T00:07:01.730Z,68.08
2023-04-10T00:12:04.590Z,69.83
2023-04-10T00:17:07.906Z,67.65
2023-04-10T00:22:12.052Z,69.51
2023-04-10T00:27:14.759Z,69.00
2023-04-10T00:32:17.490Z,67.43
2023-04-10T00:37:21.744Z,66.00
2023-04-10T00:42:24.610Z,65.82
2023-04-10T00:47:28.348Z,66.87
2023-04-10T00:52:33.740Z,66.22
2023-04-10T00:57:36.943Z,67.90
2023-04-10T01:02:39.935Z,66.60
2023-04-10T01:07:57.086Z,67.21
2023-04-10T01:13:07.736Z,69.54
2023-04-10T01:18:17.737Z,68.75
2023-04-10T01:23:43.115Z,69.65
2023-04-10T01:29:00.269Z,68.77
2023-04-10T01:34:08.197Z,68.26
2023-04-10T01:39:12.322Z,67.86
2023-04-10T01:44:19.202Z,68.58
2023-04-10T01:49:26.067Z,69.07
2023-04-10T01:54:36.842Z,70.17
2023-04-10T01:59:41.335Z,68.31
2023-04-10T02:04:46.549Z,69.80
2023-04-10T02:09:58.468Z,67.87
2023-04-10T02:15:06.427Z,68.74
2023-04-10T02:20:11.697Z,68.31
2023-04-10T02:25:16.090Z,67.50
2023-04-10T02:30:20.186Z,67.98
2023-04-10T02:35:23.433Z,68.80
2023-04-10T02:40:26.256Z,67.84
2023-04-10T02:45:45.709Z,69.37
2023-04-10T02:50:57.730Z,68.10
2023-04-10T02:56:02.496Z,69.29
2023-04-10T03:01:07.993Z,70.37
2023-04-10T03:06:15.621Z,69.89
2023-04-10T03:11:21.140Z,69.83
2023-04-10T03:16:25.500Z,70.24
2023-04-10T03:21:28.675Z,70.29
2023-04-10T03:26:31.817Z,69.02
2023-04-10T03:31:36.167Z,69.32
2023-04-10T03:36:39.073Z,69.77
2023-04-10T03:41:41.764Z,70.09
2023-04-10T03:46:46.185Z,69.29
2023-04-10T03:51:49.164Z,70.43
2023-04-10T03:56:52.066Z,70.83
2023-04-10T04:01:58.756Z,70.50
2023-04-10T04:07:01.898Z,69.24
2023-04-10T04:12:18.476Z,70.41
2023-04-10T04:17:38.066Z,66.79
2023-04-10T04:22:43.739Z,68.97
2023-04-10T04:28:06.834Z,69.63
2023-04-10T04:33:10.915Z,69.47
2023-04-10T04:38:31.793Z,68.99
2023-04-10T04:44:12.658Z,69.02
2023-04-10T04:49:37.223Z,67.94
2023-04-10T04:55:03.200Z,67.52
2023-04-10T05:00:29.144Z,67.17
2023-04-10T05:05:46.683Z,67.69
2023-04-10T05:11:02.531Z,67.44
2023-04-10T05:16:31.445Z,65.02
2023-04-10T05:21:56.296Z,63.69
2023-04-10T05:26:59.028Z,66.15
2023-04-10T05:32:08.632Z,63.06
2023-04-10T05:37:36.147Z,62.44
2023-04-10T05:42:58.816Z,59.50
2023-04-10T05:48:09.609Z,58.13
2023-04-10T05:53:34.130Z,58.28
2023-04-10T05:58:57.191Z,57.86
2023-04-10T06:04:31.899Z,57.95
2023-04-10T06:09:38.078Z,58.25
2023-04-10T06:14:43.530Z,56.30
2023-04-10T06:19:47.852Z,54.54
2023-04-10T06:24:51.929Z,52.97
2023-04-10T06:29:54.777Z,49.02
2023-04-10T06:34:59.350Z,48.30
2023-04-10T06:40:10.397Z,46.51
2023-04-10T06:45:13.639Z,44.82
2023-04-10T06:50:16.477Z,42.93
2023-04-10T06:55:20.611Z,41.97
2023-04-10T07:00:24.084Z,38.98
2023-04-10T07:05:27.149Z,38.63
2023-04-10T07:10:31.425Z,35.33
2023-04-10T07:15:34.307Z,34.08
2023-04-10T07:20:37.162Z,32.57
2023-04-10T07:25:42.744Z,34.40
2023-04-10T07:30:46.167Z,33.56
2023-04-10T07:35:48.981Z,32.79
2023-04-10T07:40:58.340Z,31.40
2023-04-10T07:46:01.111Z,30.64
2023-04-10T07:51:04.118Z,29.91
2023-04-10T07:56:10.810Z,30.40
2023-04-10T08:01:14.086Z,33.13
2023-04-10T08:06:16.849Z,38.63
2023-04-10T08:11:29.180Z,41.25
2023-04-10T08:16:33.736Z,41.80
2023-04-10T08:21:36.549Z,42.01
2023-04-10T08:26:40.806Z,41.78
2023-04-10T08:31:43.680Z,42.09
2023-04-10T08:36:46.575Z,41.01
2023-04-10T08:41:50.943Z,41.89
2023-04-10T08:46:54.044Z,41.89
2023-04-10T08:51:58.915Z,42.29
2023-04-10T08:57:04.107Z,41.49
2023-04-10T09:02:07.559Z,40.73
2023-04-10T09:07:10.385Z,40.41
2023-04-10T09:12:15.617Z,40.11
2023-04-10T09:17:20.209Z,39.55
2023-04-10T09:22:30.997Z,39.54
2023-04-10T09:27:37.291Z,38.55
2023-04-10T09:32:42.288Z,38.55
2023-04-10T09:37:46.723Z,38.16
2023-04-10T09:42:51.000Z,36.81
2023-04-10T09:48:05.101Z,34.71
2023-04-10T09:53:08.226Z,33.71
2023-04-10T09:58:13.804Z,33.64
2023-04-10T10:03:18.109Z,33.23
2023-04-10T10:08:22.324Z,33.33
2023-04-10T10:13:32.816Z,34.96
2023-04-10T10:18:45.024Z,33.61
2023-04-10T10:23:53.954Z,32.11
2023-04-10T10:29:00.200Z,32.22
2023-04-10T10:34:05.028Z,31.75
2023-04-10T10:39:25.864Z,30.90
2023-04-10T10:44:42.375Z,30.85
2023-04-10T10:49:56.275Z,30.88
2023-04-10T10:55:00.270Z,31.45
2023-04-10T11:00:05.482Z,30.76
2023-04-10T11:05:08.994Z,30.22
2023-04-10T11:10:19.451Z,29.46
2023-04-10T11:15:26.285Z,29.91
2023-04-10T11:20:29.230Z,30.33
2023-04-10T11:25:49.072Z,29.40
2023-04-10T11:30:54.617Z,29.27
2023-04-10T11:35:59.240Z,29.05
2023-04-10T11:41:05.506Z,28.93
2023-04-10T11:46:10.436Z,28.71
2023-04-10T11:51:14.954Z,28.12
2023-04-10T11:56:19.552Z,27.45
2023-04-10T12:01:24.538Z,28.19
2023-04-10T12:06:28.093Z,27.62
2023-04-10T12:11:31.666Z,27.85
2023-04-10T12:16:36.252Z,27.13
2023-04-10T12:21:41.067Z,27.73
2023-04-10T12:26:49.545Z,26.74
2023-04-10T12:31:53.935Z,27.37
2023-04-10T12:36:58.082Z,26.97
2023-04-10T12:42:14.461Z,26.53
2023-04-10T12:47:18.562Z,25.87
2023-04-10T12:52:24.030Z,25.86
2023-04-10T12:57:28.396Z,25.95
2023-04-10T13:02:33.028Z,26.01
2023-04-10T13:07:36.496Z,25.99
2023-04-10T13:12:40.678Z,26.48
2023-04-10T13:17:47.543Z,26.80
2023-04-10T13:22:53.455Z,26.15
2023-04-10T13:28:00.045Z,26.75
2023-04-10T13:33:04.373Z,27.19
2023-04-10T13:38:07.372Z,26.82
2023-04-10T13:43:10.227Z,25.83
2023-04-10T13:48:17.557Z,26.51
2023-04-10T13:53:21.706Z,26.99
2023-04-10T13:58:26.759Z,27.29
2023-04-10T14:03:31.109Z,26.86
2023-04-10T14:08:33.965Z,27.31
2023-04-10T14:13:37.075Z,27.39
2023-04-10T14:18:41.600Z,27.51
2023-04-10T14:23:47.814Z,28.16
2023-04-10T14:28:50.804Z,28.12
2023-04-10T14:33:55.317Z,28.95
2023-04-10T14:38:58.240Z,28.56
2023-04-10T14:44:01.062Z,29.07
2023-04-10T14:49:05.340Z,28.66
2023-04-10T14:54:11.446Z,28.59
2023-04-10T14:59:14.816Z,28.97
2023-04-10T15:04:22.640Z,29.85
2023-04-10T15:09:25.806Z,29.95
2023-04-10T15:14:28.878Z,30.20
2023-04-10T15:19:33.263Z,29.95
2023-04-10T15:24:46.849Z,30.50
2023-04-10T15:29:50.711Z,30.13
2023-04-10T15:34:56.820Z,29.05
2023-04-10T15:39:59.829Z,28.44
2023-04-10T15:45:06.262Z,28.58
2023-04-10T15:50:14.382Z,28.37
2023-04-10T15:55:18.092Z,28.58
2023-04-10T16:08:19.205Z,30.62
2023-04-10T16:15:03.809Z,30.75
2023-04-10T16:27:08.243Z,30.18
2023-04-10T16:33:03.789Z,30.29
2023-04-10T16:52:12.238Z,30.93
2023-04-10T16:57:14.955Z,30.68
2023-04-10T17:02:20.801Z,31.56
2023-04-10T17:07:25.749Z,32.33
2023-04-10T17:12:28.571Z,32.24
2023-04-10T17:17:33.967Z,32.82
2023-04-10T17:22:39.587Z,32.61
2023-04-10T17:27:42.362Z,33.32
2023-04-10T17:32:45.399Z,33.33
2023-04-10T17:37:49.679Z,33.66
2023-04-10T17:42:52.769Z,33.91
2023-04-10T17:47:55.643Z,34.48
2023-04-10T17:53:00.427Z,35.88
2023-04-10T17:58:03.321Z,35.67
2023-04-10T18:03:09.096Z,35.97
2023-04-10T18:08:13.941Z,35.92
2023-04-10T18:13:18.696Z,36.36
2023-04-10T18:18:27.392Z,37.39
2023-04-10T18:45:00.635Z,39.77
2023-04-10T18:57:09.120Z,39.77
2023-04-10T19:02:13.836Z,41.01
2023-04-10T19:07:16.749Z,40.30
2023-04-10T19:12:23.336Z,40.83
2023-04-10T19:17:26.509Z,41.08
2023-04-10T19:22:29.410Z,40.57
2023-04-10T19:27:36.786Z,40.54
2023-04-10T19:32:47.550Z,40.86
2023-04-10T19:37:52.622Z,41.32
2023-04-10T19:42:59.404Z,40.86
2023-04-10T19:48:02.309Z,41.15
2023-04-10T19:53:05.320Z,40.66
2023-04-10T19:58:17.004Z,41.39
2023-04-10T20:03:28.242Z,40.52
2023-04-10T20:08:31.219Z,40.00
2023-04-10T20:13:35.544Z,40.75
2023-04-10T20:18:40.207Z,39.23
2023-04-10T20:23:43.186Z,39.91
2023-04-10T20:28:47.299Z,40.48
2023-04-10T20:33:50.119Z,40.30
2023-04-10T20:38:54.100Z,40.30
2023-04-10T20:43:58.489Z,39.75
2023-04-10T20:49:01.330Z,40.07
2023-04-10T20:54:04.505Z,39.22
2023-04-10T20:59:08.719Z,40.26
2023-04-10T21:04:11.631Z,39.71
2023-04-10T21:09:14.593Z,40.55
2023-04-10T21:14:18.734Z,39.51
2023-04-10T21:19:21.465Z,40.02
2023-04-10T21:24:24.222Z,40.39
2023-04-10T21:29:28.407Z,41.46
2023-04-10T21:34:31.831Z,41.37
2023-04-10T21:39:40.187Z,42.99
2023-04-10T21:44:44.249Z,45.16
2023-04-10T21:49:49.123Z,45.35
2023-04-10T21:54:51.946Z,45.79
2023-04-10T21:59:56.039Z,47.04
2023-04-10T22:04:58.788Z,47.59
2023-04-10T22:10:01.536Z,50.39
2023-04-10T22:15:07.739Z,50.49
2023-04-10T22:20:11.455Z,53.11
2023-04-10T22:25:14.227Z,58.61
2023-04-10T22:30:18.756Z,61.01
2023-04-10T22:35:22.039Z,63.05
2023-04-10T22:40:24.952Z,63.08
2023-04-10T22:45:29.171Z,63.41
2023-04-10T22:50:32.167Z,64.94
2023-04-10T22:55:34.900Z,63.33
2023-04-10T23:00:39.106Z,62.12
2023-04-10T23:05:41.921Z,64.64
2023-04-10T23:10:45.035Z,63.50
2023-04-10T23:15:51.085Z,65.01
2023-04-10T23:20:53.952Z,62.01
2023-04-10T23:26:00.276Z,65.29
2023-04-10T23:31:04.490Z,62.47
2023-04-10T23:36:07.748Z,64.43
2023-04-10T23:41:10.501Z,64.44
2023-04-10T23:46:14.798Z,66.53
2023-04-10T23:51:17.577Z,66.23
2023-04-10T23:56:27.931Z,67.78
